Terminal Aerodrome Forecast
Issued by NWS

Home | Current Version | Previous Version | Text Only | Print | Product List | Glossary On
Versions: 1 2 3 4 5 6 7 8 9 10 11 12 13 14 15 16 17
000
FTUS43 KDTX 210520
TAFMBS
TAF
KMBS 210520Z 2106/2206 20016KT P6SM BKN250 WS012/22045KT
     FM211300 22018G27KT P6SM SCT030 OVC050
     FM211500 28014G24KT P6SM BKN028 OVC040
     FM212100 30014G22KT P6SM SCT030 OVC045
     FM220000 31011G19KT P6SM SCT035 OVC045=

USA.gov is the U.S. government's official web portal to all federal, state and local government web resources and services.